Decoded Metar for YESP ( in ) (IATA:) | Meteo·Mobile Aviation Weather
aviador You're here:

YESP Decoded Metar

in
Report Time2018-10-17 03:00:00
UTC Time2018-10-17 03:40:09
Flight Rules vfr VFR
Wind010° at 15 kt
W.Decomp.*RWY 03: 14.1 kt HW 5.1 kt LCW
RWY 29: 2.6 kt HW 14.8 kt RCW
W.Rank010° ranks 1
Current wind is above 010° avg. (11.3)
Visibility9999 m
Phenomena:N/A
Clouds:N/A
Expected CloudBase > 6,400 ft AGL from Temp-Dew spread
CeilingNone
Temp25°C
Dew Point09°C (36% RH)
AAT19.4°C
QNH1015 hPa
Raw Report
METAR YESP 170300Z AUTO 01015KT 9999 // NCD 25/09 Q1015=

Extra information for YESP:More info

Social comments